Terminal Aerodrome Forecast
Issued by NWS

Home | Current Version | Previous Version | Text Only | Print | Product List | Glossary On
Versions: 1 2 3 4 5 6 7 8 9 10 11 12 13 14 15 16 17 18
000
FTUS41 KPBZ 061720
TAFHLG
TAF
KHLG 061720Z 0618/0718 11010KT 6SM -RA OVC013
     FM062000 13007KT 6SM -RA OVC008
     FM070400 21005KT P6SM OVC008
     FM070800 28008KT P6SM OVC015
     FM071400 26006KT P6SM BKN040=

USA.gov is the U.S. government's official web portal to all federal, state and local government web resources and services.